Airfield :
LOGIN :

Register | Disclaimer

   EN    FR    IT 

 










Legend :    VFR   Marginal VFR   IFR   Intensive IFR   Very Intensive IFR
Visi :
Ceiling :
>= 8 km
>= 3000ft
5 to 8 km
1000 to 3000 ft
1500m to 5 km
500 to 1000 ft
800 to 1500m
200 to 500 ft
< 800m
< 200 ft
Symbols :   Thunderstorms  Fog  Heavy snow  Heavy precipitations  Wind > 20 kt
SIGMETs :     Misc.  Thunderstorms  Icing  Turbulence  Mountain Waves  Volcanic Ashes






- Airport Elevation : 327 ft
- IATA code : BHX


EGBB - Birmingham

CURRENT METAR :
  • 201420Z 19011KT 9999 BKN029 BKN035 17/11 Q0998

EXPIRED METARs :
  • 201350Z 18010KT 9999 SCT032 BKN040 17/11 Q0998
  • 201320Z 18010KT 150V220 9999 SCT027 BKN032 16/11 Q0998
  • 201250Z 18010KT 150V210 9999 BKN025 16/11 Q0998
  • 201220Z 19010KT 160V220 9999 BKN027 16/11 Q0998
  • 201150Z 18009KT 150V220 9999 BKN024 16/11 Q0998

TAF TAF EGBB
Valid from the 20 at 12:00 until the 21 at 12:00 UTC


201056Z 2012/2112 16012KT 9999 SCT025
TEMPO 2012/2016 19015G25KT
PROB30
TEMPO 2019/2022 6000 SHRA BKN012
BECMG 2100/2103 VRB04KT
TEMPO 2100/2106 BKN012
PROB40
TEMPO 2103/2112 4000 RADZ BKN004
ATIS : +44 121 780 0910



MET'MAP, your aeronautical weather chart ! - Copyright ORBIFLY December 2007 - Disclaimer

ORBIFLY MET'MAP TEAM :

Programming & Development : Alexandra Zaïnal
Concept & original design : Baudouin d'Aumeries
Assistance for programming : Marc-Olivier Méhu
Technical & hardware support : Manuel Goepfert

Contact : metmap@orbifly.com




SOURCES & CREDITS :

   NOAA